Time;durP1;ratioP1;P1;durP2;ratioP2;P2;SDS_P1;SDS_P2;PMS_P1;PMS_P2;Temp;Humidity;BMP_temperature;BMP_pressure;BME280_temperature;BME280_humidity;BME280_pressure;Samples;Min_cycle;Max_cycle;Signal;HPM_P1;HPM_P2
2022/03/05 00:01:28;;;;;;;14.75;8.40;;;-0.10;99.90;;;;;;1822694;79;21056;-76
2022/03/05 00:03:56;;;;;;;13.20;8.38;;;-0.20;99.90;;;;;;1825617;78;21579;-73
2022/03/05 00:06:23;;;;;;;17.05;9.35;;;-0.10;99.90;;;;;;1828314;76;21072;-76
2022/03/05 00:08:51;;;;;;;13.93;8.03;;;-0.10;99.90;;;;;;1823904;78;21464;-75
2022/03/05 00:11:20;;;;;;;14.40;9.23;;;-0.10;99.90;;;;;;1824886;78;21542;-75
2022/03/05 00:13:47;;;;;;;17.00;8.33;;;-0.20;99.90;;;;;;1823778;78;21158;-75
2022/03/05 00:16:14;;;;;;;16.67;8.45;;;-0.20;99.90;;;;;;1825019;78;21181;-76
2022/03/05 00:18:44;;;;;;;17.80;9.05;;;-0.20;99.90;;;;;;1831269;78;21100;-77
2022/03/05 00:21:14;;;;;;;15.40;8.50;;;-0.30;99.90;;;;;;1828989;78;21467;-75
2022/03/05 00:23:42;;;;;;;23.40;9.45;;;-0.20;99.90;;;;;;1823572;78;21091;-76
2022/03/05 00:26:13;;;;;;;18.45;9.93;;;-0.30;99.90;;;;;;1822968;78;21095;-75
2022/03/05 00:28:41;;;;;;;16.35;9.10;;;-0.40;99.90;;;;;;1828760;76;21456;-76
2022/03/05 00:31:09;;;;;;;19.98;9.18;;;-0.40;99.90;;;;;;1829850;77;21196;-76
2022/03/05 00:33:36;;;;;;;15.65;9.35;;;-0.50;99.90;;;;;;1825840;78;21099;-76
2022/03/05 00:36:04;;;;;;;26.37;8.43;;;-0.40;99.90;;;;;;1823751;78;21534;-76
2022/03/05 00:38:31;;;;;;;13.10;8.33;;;-0.50;99.90;;;;;;1825444;78;21188;-76
2022/03/05 00:40:58;;;;;;;12.35;8.08;;;-0.40;99.90;;;;;;1828731;78;21096;-77
2022/03/05 00:43:27;;;;;;;12.75;8.30;;;-0.50;99.90;;;;;;1825739;78;21140;-76
2022/03/05 00:45:54;;;;;;;17.70;8.58;;;-0.50;99.90;;;;;;1828558;78;21144;-77
2022/03/05 00:48:21;;;;;;;14.73;8.08;;;-0.60;99.90;;;;;;1828972;78;21528;-76
2022/03/05 00:50:49;;;;;;;19.17;8.65;;;-0.50;99.90;;;;;;1828186;78;21063;-76
2022/03/05 00:53:18;;;;;;;11.12;7.50;;;-0.60;99.90;;;;;;1830287;78;21140;-76
2022/03/05 00:55:45;;;;;;;10.38;7.10;;;-0.70;99.90;;;;;;1823571;78;21099;-76
2022/03/05 00:58:14;;;;;;;16.25;7.95;;;-0.60;99.90;;;;;;1823056;78;21088;-75
2022/03/05 01:00:55;;;;;;;;;;;;;;;;;;;;;
2022/03/05 01:03:14;;;;;;;14.47;8.00;;;-0.50;99.90;;;;;;1807408;78;21520;-75
2022/03/05 01:05:41;;;;;;;13.03;7.30;;;-0.60;99.90;;;;;;1815432;78;21154;-77
2022/03/05 01:08:09;;;;;;;14.07;8.50;;;-0.70;99.90;;;;;;1821170;78;21145;-76
2022/03/05 01:10:36;;;;;;;20.52;8.08;;;-0.70;99.90;;;;;;1823748;78;21479;-76
2022/03/05 01:13:03;;;;;;;13.78;8.35;;;-0.70;99.90;;;;;;1822781;78;21076;-76
2022/03/05 01:15:31;;;;;;;16.35;8.33;;;-0.70;99.90;;;;;;1821914;78;21159;-76
2022/03/05 01:17:58;;;;;;;15.90;8.35;;;-0.70;99.90;;;;;;1821477;79;21191;-74
2022/03/05 01:20:25;;;;;;;23.25;7.97;;;-0.70;99.90;;;;;;1825898;78;21186;-76
2022/03/05 01:22:53;;;;;;;16.55;8.80;;;-0.70;99.90;;;;;;1827928;78;21094;-75
2022/03/05 01:25:20;;;;;;;15.00;8.38;;;-0.70;99.90;;;;;;1825580;78;21076;-75
2022/03/05 01:27:47;;;;;;;13.08;7.35;;;-0.80;99.90;;;;;;1825482;78;21099;-74
2022/03/05 01:30:15;;;;;;;13.30;7.67;;;-0.80;99.90;;;;;;1825355;78;21189;-76
2022/03/05 01:32:42;;;;;;;15.78;8.63;;;-0.80;99.90;;;;;;1821755;78;21182;-77
2022/03/05 01:35:10;;;;;;;13.83;9.18;;;-0.80;99.90;;;;;;1831129;78;21141;-77
2022/03/05 01:37:37;;;;;;;14.07;8.95;;;-0.90;99.90;;;;;;1823661;78;21100;-75
2022/03/05 01:40:05;;;;;;;18.20;9.65;;;-0.90;99.90;;;;;;1823563;78;21059;-74
2022/03/05 01:42:32;;;;;;;17.80;8.70;;;-1.00;99.90;;;;;;1827499;78;21174;-74
2022/03/05 01:45:00;;;;;;;18.67;8.88;;;-1.00;99.90;;;;;;1825135;78;21100;-75
2022/03/05 01:47:27;;;;;;;19.02;9.38;;;-1.00;99.90;;;;;;1826682;78;21086;-76
2022/03/05 01:49:56;;;;;;;15.58;8.15;;;-1.00;99.90;;;;;;1831500;78;21184;-76
2022/03/05 01:52:23;;;;;;;12.98;7.35;;;-1.00;99.90;;;;;;1824667;78;21143;-76
2022/03/05 01:54:51;;;;;;;14.55;8.58;;;-1.00;99.90;;;;;;1826958;78;21264;-76
2022/03/05 01:57:18;;;;;;;15.28;8.15;;;-1.00;99.90;;;;;;1829237;78;21083;-75
2022/03/05 01:59:45;;;;;;;13.18;8.15;;;-1.00;99.90;;;;;;1823452;78;21173;-76
2022/03/05 02:02:13;;;;;;;14.45;7.80;;;-1.00;99.90;;;;;;1824638;78;21084;-75
2022/03/05 02:04:40;;;;;;;13.22;8.15;;;-1.00;99.90;;;;;;1828467;78;21068;-76
2022/03/05 02:07:08;;;;;;;23.05;8.03;;;-1.00;99.90;;;;;;1828522;78;21083;-75
2022/03/05 02:09:37;;;;;;;11.50;7.35;;;-1.10;99.90;;;;;;1828338;78;21475;-76
2022/03/05 02:12:04;;;;;;;10.45;6.90;;;-1.20;99.90;;;;;;1830684;77;21153;-77
2022/03/05 02:14:31;;;;;;;12.85;7.45;;;-1.20;99.90;;;;;;1825932;78;21448;-76
2022/03/05 02:17:05;;;;;;;15.32;7.17;;;-1.20;99.90;;;;;;1822042;78;21084;-76
2022/03/05 02:19:29;;;;;;;9.93;6.90;;;-1.30;99.90;;;;;;1832015;77;21152;-76
2022/03/05 02:21:57;;;;;;;16.07;7.53;;;-1.30;99.90;;;;;;1823056;78;21118;-75
2022/03/05 02:24:33;;;;;;;9.95;6.22;;;-1.30;99.90;;;;;;1825482;78;21634;-74
2022/03/05 02:27:02;;;;;;;12.28;7.00;;;-1.20;99.90;;;;;;1826569;78;21092;-75
2022/03/05 02:29:32;;;;;;;8.43;6.05;;;-1.20;99.90;;;;;;1829661;78;21193;-76
2022/03/05 02:31:59;;;;;;;10.30;5.95;;;-1.20;99.90;;;;;;1824934;78;21138;-75
2022/03/05 02:34:46;;;;;;;11.85;6.05;;;-1.20;99.90;;;;;;1823616;78;21091;-76
2022/03/05 02:37:16;;;;;;;8.60;5.92;;;-1.30;99.90;;;;;;1732658;82;21140;-77
2022/03/05 02:39:44;;;;;;;12.93;6.78;;;-1.30;99.90;;;;;;1733734;80;21139;-76
2022/03/05 02:42:13;;;;;;;8.05;5.37;;;-1.30;99.90;;;;;;1730647;82;21070;-76
2022/03/05 02:44:41;;;;;;;8.50;6.17;;;-1.30;99.90;;;;;;1731243;83;21089;-75
2022/03/05 02:47:09;;;;;;;10.32;6.30;;;-1.30;99.90;;;;;;1730707;83;21136;-76
2022/03/05 02:49:38;;;;;;;34.53;6.70;;;-1.50;99.90;;;;;;1729373;83;21140;-77
2022/03/05 02:52:05;;;;;;;10.88;5.80;;;-1.40;99.90;;;;;;1728147;83;21129;-77
2022/03/05 02:54:32;;;;;;;9.50;6.22;;;-1.50;99.90;;;;;;1729458;83;21070;-76
2022/03/05 02:57:00;;;;;;;11.48;6.40;;;-1.50;99.90;;;;;;1731320;83;21547;-76
2022/03/05 02:59:27;;;;;;;8.98;6.03;;;-1.40;99.90;;;;;;1731686;83;21073;-76
2022/03/05 03:01:54;;;;;;;14.38;6.17;;;-1.40;99.90;;;;;;1728461;83;21135;-76
2022/03/05 03:04:22;;;;;;;11.43;5.85;;;-1.50;99.90;;;;;;1731220;82;21449;-75
2022/03/05 03:06:50;;;;;;;12.60;6.65;;;-1.60;99.90;;;;;;1732445;82;21509;-76
2022/03/05 03:09:17;;;;;;;12.60;5.55;;;-1.60;99.90;;;;;;1731633;82;21552;-76
2022/03/05 03:11:45;;;;;;;10.72;5.53;;;-1.60;99.90;;;;;;1727988;83;21067;-76
2022/03/05 03:14:12;;;;;;;8.90;5.40;;;-1.70;99.90;;;;;;1729361;83;21584;-74
2022/03/05 03:16:39;;;;;;;9.73;5.65;;;-1.70;99.90;;;;;;1731601;83;21454;-76
2022/03/05 03:19:07;;;;;;;8.60;6.00;;;-1.70;99.90;;;;;;1731404;83;21073;-76
2022/03/05 03:21:34;;;;;;;12.47;6.47;;;-1.70;99.90;;;;;;1731519;83;21470;-76
2022/03/05 03:24:01;;;;;;;11.75;6.42;;;-1.70;99.90;;;;;;1731331;83;21081;-76
2022/03/05 03:26:28;;;;;;;12.50;6.55;;;-1.70;99.90;;;;;;1730122;82;21187;-76
2022/03/05 03:28:56;;;;;;;12.30;6.85;;;-1.70;99.90;;;;;;1730814;83;21050;-76
2022/03/05 03:31:23;;;;;;;13.20;6.65;;;-1.80;99.90;;;;;;1731626;83;21050;-75
2022/03/05 03:33:51;;;;;;;9.40;6.58;;;-1.70;99.90;;;;;;1727803;82;21074;-74
2022/03/05 03:36:18;;;;;;;11.57;6.33;;;-1.80;99.90;;;;;;1731372;83;21458;-75
2022/03/05 03:38:45;;;;;;;11.45;6.60;;;-1.70;99.90;;;;;;1731480;83;21152;-76
2022/03/05 03:41:13;;;;;;;13.90;7.67;;;-1.80;99.90;;;;;;1729738;83;21477;-76
2022/03/05 03:43:40;;;;;;;8.80;6.17;;;-1.80;99.90;;;;;;1728024;82;21174;-75
2022/03/05 03:46:07;;;;;;;10.60;6.83;;;-1.90;99.90;;;;;;1726317;83;21128;-74
2022/03/05 03:48:35;;;;;;;17.07;7.10;;;-1.90;99.90;;;;;;1726219;83;21176;-75
2022/03/05 03:51:02;;;;;;;12.50;7.08;;;-2.00;99.90;;;;;;1726322;83;21529;-75
2022/03/05 03:53:31;;;;;;;11.12;6.62;;;-2.00;99.90;;;;;;1726186;83;21083;-76
2022/03/05 03:55:59;;;;;;;10.00;6.53;;;-2.00;99.90;;;;;;1732282;82;21128;-74
2022/03/05 03:58:26;;;;;;;11.43;6.90;;;-2.00;99.90;;;;;;1728042;83;21085;-74
2022/03/05 04:00:53;;;;;;;13.15;6.97;;;-2.00;99.90;;;;;;1728622;83;21066;-74
2022/03/05 04:03:21;;;;;;;11.75;6.78;;;-1.90;99.90;;;;;;1729449;83;21160;-73
2022/03/05 04:05:48;;;;;;;14.73;6.62;;;-1.90;99.90;;;;;;1726251;83;21074;-74
2022/03/05 04:11:00;;;;;;;12.63;6.90;;;-2.00;99.90;;;;;;1734321;83;21175;-74
2022/03/05 04:13:28;;;;;;;11.85;7.22;;;-1.90;99.90;;;;;;1731556;83;21175;-76
2022/03/05 04:15:56;;;;;;;12.47;7.05;;;-2.00;99.90;;;;;;1729665;83;21074;-74
2022/03/05 04:18:23;;;;;;;11.93;7.15;;;-2.00;99.90;;;;;;1727039;83;21451;-75
2022/03/05 04:20:50;;;;;;;9.30;6.30;;;-2.00;99.90;;;;;;1726298;83;21175;-75
2022/03/05 04:23:18;;;;;;;10.88;6.45;;;-2.10;99.90;;;;;;1726316;83;21077;-75
2022/03/05 04:25:45;;;;;;;16.87;6.53;;;-2.10;99.90;;;;;;1729689;83;21176;-75
2022/03/05 04:28:12;;;;;;;13.38;5.92;;;-2.10;99.90;;;;;;1729632;83;21136;-75
2022/03/05 04:30:40;;;;;;;11.05;6.62;;;-2.10;99.90;;;;;;1729918;83;21094;-75
2022/03/05 04:33:07;;;;;;;8.43;6.20;;;-2.10;99.90;;;;;;1729035;83;21082;-75
2022/03/05 04:35:34;;;;;;;12.58;7.22;;;-2.00;99.90;;;;;;1729884;83;21073;-74
2022/03/05 04:38:02;;;;;;;11.28;6.97;;;-2.10;99.90;;;;;;1727510;83;21089;-74
2022/03/05 04:40:29;;;;;;;18.45;7.55;;;-2.10;99.90;;;;;;1728508;83;21098;-75
2022/03/05 04:42:56;;;;;;;10.05;6.87;;;-2.20;99.90;;;;;;1727630;83;21152;-75
2022/03/05 04:45:24;;;;;;;14.43;7.70;;;-2.20;99.90;;;;;;1731249;83;21097;-75
2022/03/05 04:47:52;;;;;;;16.87;7.83;;;-2.20;99.90;;;;;;1730499;83;21556;-75
2022/03/05 04:50:19;;;;;;;11.22;7.10;;;-2.10;99.90;;;;;;1731232;82;21129;-75
2022/03/05 04:52:46;;;;;;;14.50;8.18;;;-2.20;99.90;;;;;;1730505;83;21136;-75
2022/03/05 04:55:14;;;;;;;16.10;8.05;;;-2.20;99.90;;;;;;1731392;82;21089;-75
2022/03/05 04:57:41;;;;;;;20.60;8.00;;;-2.30;99.90;;;;;;1730079;83;21058;-75
2022/03/05 05:00:09;;;;;;;12.53;7.50;;;-2.30;99.90;;;;;;1729892;83;21078;-75
2022/03/05 05:02:36;;;;;;;15.43;7.83;;;-2.30;99.90;;;;;;1727115;83;21227;-74
2022/03/05 05:05:05;;;;;;;11.95;7.28;;;-2.30;99.90;;;;;;1729838;83;21140;-75
2022/03/05 05:07:33;;;;;;;16.25;8.40;;;-2.30;99.90;;;;;;1730601;83;21105;-76
2022/03/05 05:10:00;;;;;;;13.30;7.42;;;-2.40;99.90;;;;;;1733259;83;21101;-74
2022/03/05 05:12:29;;;;;;;12.13;7.17;;;-2.40;99.90;;;;;;1731390;83;21160;-76
2022/03/05 05:14:57;;;;;;;14.57;8.20;;;-2.50;99.90;;;;;;1728520;83;21098;-76
2022/03/05 05:17:24;;;;;;;12.47;7.05;;;-2.40;99.90;;;;;;1731345;83;21073;-77
2022/03/05 05:19:52;;;;;;;10.82;7.40;;;-2.40;99.90;;;;;;1731154;83;21465;-74
2022/03/05 05:22:19;;;;;;;11.55;7.80;;;-2.40;99.90;;;;;;1729250;83;21129;-74
2022/03/05 05:24:47;;;;;;;13.43;7.22;;;-2.40;99.90;;;;;;1731315;82;21074;-74
2022/03/05 05:27:14;;;;;;;8.73;6.78;;;-2.40;99.90;;;;;;1731472;83;21169;-74
2022/03/05 05:29:41;;;;;;;14.40;7.87;;;-2.30;99.90;;;;;;1731313;82;21156;-74
2022/03/05 05:32:10;;;;;;;14.35;7.75;;;-2.30;99.90;;;;;;1731239;83;21050;-75
2022/03/05 05:34:37;;;;;;;16.52;7.75;;;-2.30;99.90;;;;;;1727131;82;21082;-75
2022/03/05 05:37:05;;;;;;;13.13;7.78;;;-2.40;99.90;;;;;;1726153;83;21097;-74
2022/03/05 05:39:32;;;;;;;13.95;7.70;;;-2.40;99.90;;;;;;1729615;83;21187;-75
2022/03/05 05:42:00;;;;;;;13.05;7.90;;;-2.40;99.90;;;;;;1730212;82;21133;-75
2022/03/05 05:44:27;;;;;;;14.45;7.92;;;-2.50;99.90;;;;;;1729610;83;21050;-75
2022/03/05 05:46:54;;;;;;;12.13;7.90;;;-2.50;99.90;;;;;;1728582;83;21070;-76
2022/03/05 05:49:22;;;;;;;15.88;7.80;;;-2.60;99.90;;;;;;1730496;80;21109;-75
2022/03/05 05:51:49;;;;;;;13.20;8.08;;;-2.50;99.90;;;;;;1730695;80;21110;-76
2022/03/05 05:54:16;;;;;;;14.90;7.95;;;-2.40;99.90;;;;;;1726698;83;21077;-77
2022/03/05 05:56:44;;;;;;;14.60;8.35;;;-2.40;99.90;;;;;;1726251;83;21086;-75
2022/03/05 05:59:11;;;;;;;15.80;9.00;;;-2.40;99.90;;;;;;1726213;83;21195;-76
2022/03/05 06:01:39;;;;;;;15.40;8.63;;;-2.40;99.90;;;;;;1726448;83;21136;-75
2022/03/05 06:04:06;;;;;;;15.05;8.68;;;-2.40;99.90;;;;;;1730409;83;21089;-74
2022/03/05 06:06:33;;;;;;;14.87;7.85;;;-2.40;99.90;;;;;;1728320;83;21047;-75
2022/03/05 06:09:01;;;;;;;17.40;7.85;;;-2.40;99.90;;;;;;1730177;83;21544;-74
2022/03/05 06:11:29;;;;;;;16.52;8.30;;;-2.40;99.90;;;;;;1732851;83;21147;-74
2022/03/05 06:13:57;;;;;;;42.88;8.83;;;-2.30;99.90;;;;;;1734922;83;21179;-74
2022/03/05 06:16:25;;;;;;;15.23;7.67;;;-2.30;99.90;;;;;;1731937;83;21058;-74
2022/03/05 06:18:52;;;;;;;17.73;9.63;;;-2.30;99.90;;;;;;1730526;82;21144;-75
2022/03/05 06:21:19;;;;;;;15.03;8.60;;;-2.30;99.90;;;;;;1729781;82;21203;-76
2022/03/05 06:23:47;;;;;;;14.55;8.83;;;-2.40;99.90;;;;;;1731066;83;21054;-74
2022/03/05 06:26:14;;;;;;;16.93;9.50;;;-2.40;99.90;;;;;;1731649;83;21148;-75
2022/03/05 06:28:41;;;;;;;14.98;9.15;;;-2.30;99.90;;;;;;1730593;83;21179;-75
2022/03/05 06:31:09;;;;;;;21.23;9.20;;;-2.20;99.90;;;;;;1733193;82;21134;-75
2022/03/05 06:33:36;;;;;;;21.50;8.25;;;-2.30;99.90;;;;;;1728562;83;21089;-75
2022/03/05 06:36:04;;;;;;;17.48;9.95;;;-2.20;99.90;;;;;;1733682;83;21077;-74
2022/03/05 06:38:31;;;;;;;16.25;9.28;;;-2.10;99.90;;;;;;1731443;82;21160;-75
2022/03/05 06:40:59;;;;;;;17.98;9.35;;;-2.10;99.90;;;;;;1726720;83;21074;-76
2022/03/05 06:43:26;;;;;;;13.18;8.58;;;-2.10;99.90;;;;;;1731564;83;21541;-75
2022/03/05 06:45:53;;;;;;;14.20;9.03;;;-2.00;99.90;;;;;;1728492;83;21077;-74
2022/03/05 06:48:21;;;;;;;19.15;10.03;;;-1.90;99.90;;;;;;1730974;83;21055;-75
2022/03/05 06:50:48;;;;;;;20.52;10.43;;;-1.90;99.90;;;;;;1733350;83;21151;-74
2022/03/05 06:53:15;;;;;;;22.05;9.40;;;-1.80;99.90;;;;;;1732514;83;21050;-75
2022/03/05 06:55:43;;;;;;;18.87;10.03;;;-1.80;99.90;;;;;;1730350;83;21159;-75
2022/03/05 06:58:10;;;;;;;20.25;11.68;;;-1.80;99.90;;;;;;1729740;83;21187;-75
2022/03/05 07:00:37;;;;;;;17.20;10.23;;;-1.70;99.90;;;;;;1730626;83;21050;-75
2022/03/05 07:03:10;;;;;;;24.23;11.05;;;-1.70;99.90;;;;;;1735662;83;21077;-75
2022/03/05 07:05:37;;;;;;;17.30;10.23;;;-1.60;99.90;;;;;;1730372;83;21128;-75
2022/03/05 07:08:04;;;;;;;20.52;10.08;;;-1.50;99.90;;;;;;1730184;83;21090;-76
2022/03/05 07:10:32;;;;;;;21.37;10.78;;;-1.50;99.90;;;;;;1726309;82;21090;-75
2022/03/05 07:12:59;;;;;;;21.25;11.45;;;-1.40;99.90;;;;;;1726274;83;21058;-72
2022/03/05 07:15:27;;;;;;;17.40;10.03;;;-1.30;99.90;;;;;;1726529;83;21229;-71
2022/03/05 07:17:54;;;;;;;16.30;9.85;;;-1.30;99.90;;;;;;1726501;83;21466;-72
2022/03/05 07:20:21;;;;;;;17.62;11.20;;;-1.30;99.90;;;;;;1726216;82;21094;-72
2022/03/05 07:22:49;;;;;;;20.05;10.82;;;-1.10;99.90;;;;;;1726992;83;21209;-72
2022/03/05 07:25:16;;;;;;;20.82;11.75;;;-1.00;99.90;;;;;;1733022;83;21501;-74
2022/03/05 07:27:43;;;;;;;23.20;10.68;;;-0.90;99.90;;;;;;1729607;83;21105;-74
2022/03/05 07:30:11;;;;;;;17.42;10.82;;;-0.70;99.90;;;;;;1727428;83;21490;-75
2022/03/05 07:32:38;;;;;;;20.60;11.48;;;-0.60;99.90;;;;;;1731247;83;21082;-75
2022/03/05 07:35:06;;;;;;;20.12;11.15;;;-0.60;99.90;;;;;;1730659;83;21057;-75
2022/03/05 07:37:33;;;;;;;18.07;11.35;;;-0.50;99.90;;;;;;1730543;83;21073;-74
2022/03/05 07:40:00;;;;;;;26.25;11.43;;;-0.50;99.90;;;;;;1730560;83;21510;-74
2022/03/05 07:42:27;;;;;;;17.05;10.65;;;-0.40;99.90;;;;;;1729935;83;21073;-75
2022/03/05 07:44:55;;;;;;;17.37;10.88;;;-0.30;99.90;;;;;;1729211;83;21489;-75
2022/03/05 07:47:22;;;;;;;19.02;11.48;;;-0.20;99.90;;;;;;1728943;82;21070;-75
2022/03/05 07:49:50;;;;;;;21.42;11.57;;;-0.10;99.90;;;;;;1731404;83;21116;-75
2022/03/05 07:52:17;;;;;;;23.52;12.23;;;0.10;99.90;;;;;;1730691;82;21539;-75
2022/03/05 07:54:44;;;;;;;21.93;11.35;;;0.20;99.90;;;;;;1731318;83;21081;-75
2022/03/05 07:57:12;;;;;;;26.30;12.28;;;0.40;99.90;;;;;;1728466;83;21465;-75
2022/03/05 07:59:39;;;;;;;22.93;11.57;;;0.60;99.90;;;;;;1728085;83;21126;-75
2022/03/05 08:02:07;;;;;;;20.25;12.73;;;0.80;99.90;;;;;;1727446;83;21069;-75
2022/03/05 08:04:35;;;;;;;20.25;12.33;;;1.00;99.90;;;;;;1733476;83;21148;-78
2022/03/05 08:07:04;;;;;;;23.12;12.30;;;1.20;99.90;;;;;;1730268;82;21113;-79
2022/03/05 08:09:33;;;;;;;20.32;12.15;;;1.50;99.90;;;;;;1735404;83;21110;-79
2022/03/05 08:12:05;;;;;;;23.67;13.38;;;1.70;99.90;;;;;;1731256;82;21102;-75
2022/03/05 08:14:33;;;;;;;29.07;13.32;;;1.80;99.90;;;;;;1729324;83;21089;-75
2022/03/05 08:17:02;;;;;;;22.85;12.85;;;2.00;99.90;;;;;;1727367;83;21094;-74
2022/03/05 08:19:30;;;;;;;22.48;12.88;;;2.20;99.90;;;;;;1730854;83;21127;-74
2022/03/05 08:21:57;;;;;;;21.48;13.85;;;2.50;99.90;;;;;;1727873;83;21077;-73
2022/03/05 08:24:25;;;;;;;23.32;12.15;;;2.60;99.90;;;;;;1730220;83;21070;-71
2022/03/05 08:26:52;;;;;;;22.37;11.95;;;2.80;99.90;;;;;;1731021;83;21481;-72
2022/03/05 08:29:24;;;;;;;19.95;13.60;;;3.00;99.90;;;;;;1730073;83;21069;-76
2022/03/05 08:31:57;;;;;;;20.85;12.65;;;3.00;99.90;;;;;;1730849;83;21540;-73
2022/03/05 08:34:24;;;;;;;20.95;12.37;;;3.10;99.90;;;;;;1730967;83;21160;-73
2022/03/05 08:36:51;;;;;;;21.00;12.65;;;3.20;99.90;;;;;;1731624;83;21486;-73
2022/03/05 08:39:19;;;;;;;21.80;12.10;;;3.40;99.90;;;;;;1732712;82;21179;-73
2022/03/05 08:41:46;;;;;;;22.02;13.20;;;3.70;99.90;;;;;;1730985;83;21054;-73
2022/03/05 08:44:14;;;;;;;23.77;13.18;;;3.70;99.90;;;;;;1731136;82;21046;-72
2022/03/05 08:46:41;;;;;;;17.25;12.28;;;3.80;99.90;;;;;;1727320;83;21175;-75
2022/03/05 08:49:08;;;;;;;17.87;11.78;;;3.90;99.90;;;;;;1730930;83;21077;-73
2022/03/05 08:51:36;;;;;;;20.50;12.78;;;4.00;99.90;;;;;;1727301;83;21074;-77
2022/03/05 08:54:03;;;;;;;18.60;11.85;;;4.40;99.90;;;;;;1726303;83;21150;-74
2022/03/05 08:56:30;;;;;;;17.65;12.23;;;4.60;99.90;;;;;;1726278;82;21132;-75
2022/03/05 08:58:57;;;;;;;21.80;12.47;;;4.50;99.90;;;;;;1729838;83;21081;-75
2022/03/05 09:01:25;;;;;;;19.42;12.25;;;4.70;99.90;;;;;;1734852;83;21455;-77
2022/03/05 09:03:52;;;;;;;19.10;12.13;;;4.60;99.90;;;;;;1731979;83;21140;-78
2022/03/05 09:06:19;;;;;;;18.80;12.07;;;4.60;99.90;;;;;;1731365;83;21465;-79
2022/03/05 09:08:47;;;;;;;17.95;11.48;;;4.70;99.90;;;;;;1732334;82;21054;-78
2022/03/05 09:11:14;;;;;;;15.58;10.58;;;4.60;99.90;;;;;;1732445;83;21148;-76
2022/03/05 09:13:41;;;;;;;18.27;12.00;;;4.80;99.90;;;;;;1731801;83;21139;-78
2022/03/05 09:16:09;;;;;;;17.73;10.63;;;5.30;99.90;;;;;;1731587;83;21109;-79
2022/03/05 09:18:36;;;;;;;18.80;10.98;;;5.30;99.90;;;;;;1730508;83;21140;-79
2022/03/05 09:21:03;;;;;;;19.02;12.18;;;5.40;99.90;;;;;;1730758;83;21069;-78
2022/03/05 09:23:32;;;;;;;16.82;11.40;;;5.70;99.90;;;;;;1731487;83;21215;-76
2022/03/05 09:25:59;;;;;;;20.65;12.45;;;5.90;99.90;;;;;;1730402;83;21058;-81
2022/03/05 09:28:26;;;;;;;16.62;10.80;;;5.70;99.90;;;;;;1731658;83;21217;-77
2022/03/05 09:30:54;;;;;;;15.35;10.45;;;5.50;99.90;;;;;;1731089;83;21073;-77
2022/03/05 09:33:22;;;;;;;17.70;11.00;;;5.70;99.90;;;;;;1729320;83;21168;-75
2022/03/05 09:35:50;;;;;;;16.95;10.75;;;5.70;99.90;;;;;;1728217;83;21682;-77
2022/03/05 09:38:18;;;;;;;16.50;10.58;;;6.00;99.90;;;;;;1728190;83;21058;-75
2022/03/05 09:40:45;;;;;;;17.02;10.63;;;6.00;99.90;;;;;;1731293;83;21058;-75
2022/03/05 09:43:13;;;;;;;16.48;10.40;;;6.10;99.90;;;;;;1730598;83;21168;-76
2022/03/05 09:45:40;;;;;;;19.85;9.48;;;6.30;99.90;;;;;;1727514;83;21191;-78
2022/03/05 09:48:09;;;;;;;18.10;10.30;;;6.20;99.90;;;;;;1732325;83;21552;-77
2022/03/05 09:50:36;;;;;;;15.13;9.80;;;6.60;99.90;;;;;;1731676;82;21159;-77
2022/03/05 09:53:04;;;;;;;16.10;9.78;;;6.60;99.90;;;;;;1731166;82;21051;-75
2022/03/05 09:55:31;;;;;;;15.03;9.08;;;6.70;99.90;;;;;;1726831;83;21148;-74
2022/03/05 09:57:59;;;;;;;13.35;8.78;;;6.90;99.90;;;;;;1727024;83;21145;-76
2022/03/05 10:00:27;;;;;;;15.85;9.48;;;7.20;99.90;;;;;;1726679;83;21054;-76
2022/03/05 10:02:54;;;;;;;15.20;8.78;;;7.40;99.90;;;;;;1728036;82;21085;-76
2022/03/05 10:05:26;;;;;;;17.12;9.33;;;7.20;99.90;;;;;;1730946;82;21068;-75
2022/03/05 10:08:01;;;;;;;12.68;8.40;;;7.30;99.90;;;;;;1755131;82;21078;-76
2022/03/05 10:10:29;;;;;;;14.15;8.60;;;7.40;99.90;;;;;;1755273;82;21162;-75
2022/03/05 10:12:56;;;;;;;12.68;7.80;;;7.50;99.90;;;;;;1755165;82;21042;-75
2022/03/05 10:15:23;;;;;;;11.65;7.17;;;7.50;99.90;;;;;;1755147;82;21050;-75
2022/03/05 10:17:56;;;;;;;11.15;8.18;;;7.80;99.90;;;;;;1755283;82;21512;-76
2022/03/05 10:20:28;;;;;;;13.08;7.45;;;7.60;99.90;;;;;;1755156;82;21528;-76
2022/03/05 10:22:59;;;;;;;11.53;7.85;;;7.90;99.30;;;;;;1755142;82;21474;-77
2022/03/05 10:25:41;;;;;;;10.85;7.17;;;7.90;99.90;;;;;;1757041;82;21137;-78
2022/03/05 10:28:10;;;;;;;19.05;7.83;;;7.90;98.70;;;;;;1755244;82;21131;-79
2022/03/05 10:30:46;;;;;;;11.33;7.35;;;7.90;98.90;;;;;;1755152;82;21435;-82
2022/03/05 10:33:37;;;;;;;9.83;6.92;;;8.00;97.10;;;;;;1755358;82;21053;-76
2022/03/05 10:36:06;;;;;;;10.30;6.35;;;8.20;97.40;;;;;;1755229;82;21065;-78
2022/03/05 10:38:45;;;;;;;9.90;6.08;;;8.00;95.70;;;;;;1755158;82;21073;-74
2022/03/05 10:41:14;;;;;;;14.40;6.92;;;8.30;95.80;;;;;;1755156;82;21147;-76
2022/03/05 10:43:41;;;;;;;11.65;7.17;;;7.60;96.70;;;;;;1755257;82;21272;-76
2022/03/05 10:46:09;;;;;;;10.63;7.45;;;8.40;95.80;;;;;;1755162;82;21559;-75
2022/03/05 10:48:43;;;;;;;10.30;6.42;;;8.60;95.20;;;;;;1755321;82;21156;-75
2022/03/05 10:51:13;;;;;;;12.78;7.03;;;8.60;93.40;;;;;;1755177;81;21214;-75
2022/03/05 10:53:46;;;;;;;9.85;6.65;;;8.70;93.20;;;;;;1755099;82;21139;-77
2022/03/05 10:56:26;;;;;;;8.85;6.60;;;8.80;92.60;;;;;;1754553;82;21082;-75
2022/03/05 10:59:00;;;;;;;;;;;9.30;92.40;;;;;;1757712;82;21101;-76
2022/03/05 11:01:29;;;;;;;10.03;6.72;;;9.30;92.40;;;;;;1755155;82;20129;-77
2022/03/05 11:03:56;;;;;;;10.68;6.47;;;8.80;90.60;;;;;;1755146;82;21152;-75
2022/03/05 11:06:24;;;;;;;10.38;5.78;;;9.20;90.40;;;;;;1755374;82;21149;-75
2022/03/05 11:08:52;;;;;;;10.10;5.78;;;9.10;90.70;;;;;;1755505;82;21199;-76
2022/03/05 11:11:20;;;;;;;9.15;6.22;;;9.80;87.90;;;;;;1755491;82;21532;-78
2022/03/05 11:13:47;;;;;;;10.18;6.03;;;9.20;85.90;;;;;;1755474;82;21077;-74
2022/03/05 11:16:14;;;;;;;9.20;5.97;;;9.00;87.60;;;;;;1755675;82;21469;-77
2022/03/05 11:18:42;;;;;;;8.00;5.80;;;9.60;85.60;;;;;;1756005;82;21206;-76
2022/03/05 11:21:09;;;;;;;8.38;6.25;;;9.30;84.70;;;;;;1756133;81;21136;-76
2022/03/05 11:23:37;;;;;;;19.73;6.58;;;9.10;84.90;;;;;;1756137;82;21053;-78
2022/03/05 11:26:07;;;;;;;10.13;6.08;;;9.50;83.60;;;;;;1756236;81;21179;-77
2022/03/05 11:28:37;;;;;;;6.22;5.45;;;9.20;83.90;;;;;;1756295;82;21140;-74
2022/03/05 11:31:22;;;;;;;12.15;6.20;;;9.20;83.70;;;;;;1730047;81;21124;-78
2022/03/05 11:33:49;;;;;;;10.82;6.85;;;9.80;84.30;;;;;;1756207;82;21132;-76
2022/03/05 11:36:31;;;;;;;10.05;6.42;;;10.30;80.10;;;;;;1756114;82;21442;-79
2022/03/05 11:39:19;;;;;;;10.53;6.40;;;10.30;79.10;;;;;;1755695;82;21140;-81
2022/03/05 11:41:51;;;;;;;9.65;6.25;;;10.20;80.10;;;;;;1755929;82;21077;-80
2022/03/05 11:44:20;;;;;;;9.00;6.40;;;11.20;78.30;;;;;;1756020;82;21159;-79
2022/03/05 11:46:47;;;;;;;8.40;5.87;;;12.00;75.40;;;;;;1756132;82;21081;-76
2022/03/05 11:49:15;;;;;;;10.88;6.30;;;12.50;71.90;;;;;;1756087;82;21081;-78
2022/03/05 11:51:58;;;;;;;7.58;5.75;;;11.60;73.10;;;;;;1756049;81;21516;-79
2022/03/05 11:54:26;;;;;;;11.73;5.90;;;11.30;73.10;;;;;;1756199;82;21073;-75
2022/03/05 11:57:10;;;;;;;10.03;6.72;;;11.40;71.60;;;;;;1756024;80;21081;-79
2022/03/05 11:59:39;;;;;;;10.50;6.17;;;10.70;74.20;;;;;;1756169;82;21086;-78
2022/03/05 12:02:06;;;;;;;9.25;6.25;;;11.10;73.70;;;;;;1756113;82;21081;-79
2022/03/05 12:04:34;;;;;;;7.12;5.78;;;11.00;72.70;;;;;;1756296;82;21156;-77
2022/03/05 12:07:03;;;;;;;13.65;6.50;;;11.10;73.40;;;;;;1756052;82;21171;-80
2022/03/05 12:09:33;;;;;;;13.68;6.30;;;11.70;72.40;;;;;;1756284;82;21077;-80
2022/03/05 12:12:00;;;;;;;7.63;6.30;;;11.10;71.10;;;;;;1748885;82;21073;-77
2022/03/05 12:15:07;;;;;;;12.20;6.85;;;12.00;69.90;;;;;;1756182;82;21078;-77
2022/03/05 12:17:33;;;;;;;7.28;5.95;;;11.30;69.80;;;;;;1754745;82;21152;-78
2022/03/05 12:20:03;;;;;;;10.05;6.15;;;12.20;68.70;;;;;;1757656;81;21160;-76
2022/03/05 12:22:31;;;;;;;7.97;5.60;;;11.90;66.70;;;;;;1755899;82;21112;-76
2022/03/05 12:24:59;;;;;;;7.62;5.42;;;11.40;67.80;;;;;;1755837;80;21152;-79
2022/03/05 12:27:28;;;;;;;8.75;6.08;;;10.70;68.10;;;;;;1755947;82;21069;-80
2022/03/05 12:29:59;;;;;;;10.15;6.20;;;10.30;69.10;;;;;;1755901;82;21077;-83
2022/03/05 12:32:31;;;;;;;9.83;6.37;;;10.80;69.40;;;;;;1755933;82;21213;-77
2022/03/05 12:35:05;;;;;;;10.68;6.62;;;11.10;69.20;;;;;;1755730;80;21170;-76
2022/03/05 12:37:33;;;;;;;10.88;6.08;;;12.40;67.80;;;;;;1755465;80;21547;-79
2022/03/05 12:40:00;;;;;;;7.55;5.70;;;11.70;68.10;;;;;;1755987;80;21077;-78
2022/03/05 12:42:39;;;;;;;9.33;5.55;;;12.50;64.00;;;;;;1755910;82;21442;-78
2022/03/05 12:45:07;;;;;;;8.85;5.95;;;12.90;64.00;;;;;;1755003;82;21105;-77
2022/03/05 12:47:34;;;;;;;9.13;6.20;;;13.10;62.00;;;;;;1756008;82;21093;-77
2022/03/05 12:50:19;;;;;;;7.53;6.05;;;11.70;63.60;;;;;;1755852;82;21101;-77